メインページ
METAR-TAF:

METAR-TAF

空港 :

レゾリュート, ヌナブト準州, カナダ

緯度: 74-43N, 経度: 094-59W, 海抜: 67m

現時点の気象観測

当レポートは1時間8分前の10:00(UTC)に作成
の風 3kt、から北東の間で変化する
気温 -6°C
湿度 58%
気圧 1030 hPa
視程: 24.1km
晴天

METAR: CYRB 201000Z 36003KT 350V050 15SM SKC M06/M13 A3042 RMK SLP309

時間: 06:08 (11:08 UTC)

予報

当レポートは5時間29分前の05:39(UTC)に作成
予報は20日の 06時(UTC)から 21日の 06時(UTC)まで有効
変向風 3kt
視程: 10km
晴天

TAF: CYRB 200539Z 2006/2106 VRB03KT P6SM SKC RMK NXT FCST BY 201200Z

4,000以上の空港の気象観測と天気予報(METAR報とTAF報)

利用可能な観測所は地図上に黄色い丸と赤い丸で示す。

丸の上にカーソルを重ねると観測所名を参照できる。

次にクリックすると気象観測と天気予報を参照できる。

マップの切り替え:黒色「×」印の緑ボタンをクリックして拡大、「-」印の緑ボタンをクリックして縮小、緑色の三角印をクリックして隣りの地図に切り替え


METAR-TAF: